createdAt,value
2023-02-12T00:02:05.647Z,15.77
2023-02-12T00:05:11.644Z,9.57
2023-02-12T00:08:17.854Z,10.60
2023-02-12T00:11:25.869Z,14.53
2023-02-12T00:14:34.702Z,11.63
2023-02-12T00:17:40.905Z,10.60
2023-02-12T00:20:47.322Z,13.07
2023-02-12T00:23:53.736Z,15.60
2023-02-12T00:27:00.210Z,10.17
2023-02-12T00:30:09.239Z,9.70
2023-02-12T00:33:15.340Z,13.30
2023-02-12T00:36:24.515Z,14.00
2023-02-12T00:39:30.734Z,14.20
2023-02-12T00:42:37.211Z,15.20
2023-02-12T00:45:46.056Z,18.90
2023-02-12T00:48:52.670Z,20.87
2023-02-12T00:51:59.046Z,19.87
2023-02-12T00:55:06.187Z,13.77
2023-02-12T00:58:12.584Z,13.40
2023-02-12T01:01:20.469Z,13.27
2023-02-12T01:04:26.849Z,16.40
2023-02-12T01:07:33.389Z,16.30
2023-02-12T01:10:39.774Z,15.30
2023-02-12T01:13:46.283Z,10.90
2023-02-12T01:16:54.198Z,11.63
2023-02-12T01:20:00.954Z,15.20
2023-02-12T01:23:08.635Z,14.30
2023-02-12T01:26:16.375Z,15.20
2023-02-12T01:29:22.473Z,16.07
2023-02-12T01:32:30.203Z,14.60
2023-02-12T01:35:38.426Z,13.07
2023-02-12T01:38:45.068Z,10.50
2023-02-12T01:41:51.337Z,8.90
2023-02-12T01:45:41.251Z,12.93
2023-02-12T01:48:49.844Z,9.57
2023-02-12T01:51:59.526Z,11.17
2023-02-12T01:55:08.755Z,11.03
2023-02-12T01:58:16.096Z,13.43
2023-02-12T02:01:25.905Z,14.70
2023-02-12T02:04:38.623Z,13.73
2023-02-12T02:07:45.669Z,11.93
2023-02-12T02:10:52.431Z,11.93
2023-02-12T02:14:16.571Z,12.57
2023-02-12T02:17:36.176Z,12.60
2023-02-12T02:21:19.445Z,17.00
2023-02-12T02:24:49.069Z,13.90
2023-02-12T02:28:08.174Z,12.40
2023-02-12T02:31:18.991Z,7.60
2023-02-12T02:34:34.245Z,6.13
2023-02-12T02:37:47.389Z,6.50
2023-02-12T02:40:57.811Z,5.73
2023-02-12T02:44:09.130Z,5.87
2023-02-12T02:47:20.327Z,6.73
2023-02-12T02:50:30.584Z,7.93
2023-02-12T02:53:40.901Z,11.63
2023-02-12T02:56:51.935Z,14.53
2023-02-12T03:00:05.315Z,12.50
2023-02-12T03:03:21.256Z,8.87
2023-02-12T03:06:31.890Z,7.77
2023-02-12T03:09:41.308Z,7.40
2023-02-12T03:12:53.367Z,9.00
2023-02-12T03:16:03.970Z,9.23
2023-02-12T03:19:19.324Z,6.33
2023-02-12T03:22:32.744Z,8.93
2023-02-12T03:25:45.868Z,6.70
2023-02-12T03:28:52.946Z,7.37
2023-02-12T03:32:15.497Z,8.83
2023-02-12T03:35:27.608Z,6.87
2023-02-12T03:38:38.875Z,8.10
2023-02-12T03:41:49.406Z,6.87
2023-02-12T03:45:01.113Z,7.03
2023-02-12T03:48:12.656Z,8.37
2023-02-12T03:51:25.205Z,8.80
2023-02-12T03:54:32.024Z,7.67
2023-02-12T03:57:42.524Z,9.83
2023-02-12T04:00:49.374Z,11.13
2023-02-12T04:03:55.578Z,9.17
2023-02-12T04:07:03.486Z,9.13
2023-02-12T04:10:10.864Z,5.03
2023-02-12T04:13:22.685Z,8.20
2023-02-12T04:16:36.931Z,15.07
2023-02-12T04:19:56.765Z,11.63
2023-02-12T04:23:13.188Z,10.10
2023-02-12T04:26:26.296Z,11.63
2023-02-12T04:29:44.414Z,12.13
2023-02-12T04:32:55.224Z,10.90
2023-02-12T04:36:04.577Z,10.70
2023-02-12T04:39:17.633Z,11.17
2023-02-12T04:42:24.510Z,8.40
2023-02-12T04:45:33.186Z,10.27
2023-02-12T04:48:54.646Z,9.47
2023-02-12T04:52:00.981Z,8.63
2023-02-12T04:55:09.367Z,10.47
2023-02-12T04:58:15.592Z,10.50
2023-02-12T05:04:46.374Z,14.67
2023-02-12T05:07:52.775Z,16.00
2023-02-12T05:11:05.622Z,14.03
2023-02-12T05:14:12.566Z,10.83
2023-02-12T05:17:18.577Z,10.13
2023-02-12T05:20:24.964Z,8.17
2023-02-12T05:23:33.087Z,9.03
2023-02-12T05:26:41.088Z,7.77
2023-02-12T05:29:47.305Z,15.23
2023-02-12T05:32:53.608Z,19.93
2023-02-12T05:36:05.644Z,22.17
2023-02-12T05:39:12.519Z,23.13
2023-02-12T05:42:20.036Z,17.63
2023-02-12T05:45:28.142Z,17.33
2023-02-12T05:48:35.474Z,16.60
2023-02-12T05:51:41.989Z,17.73
2023-02-12T05:54:50.875Z,16.23
2023-02-12T05:57:58.846Z,16.87
2023-02-12T06:01:10.317Z,13.30
2023-02-12T06:04:17.880Z,16.37
2023-02-12T06:07:24.417Z,18.23
2023-02-12T06:10:30.328Z,15.37
2023-02-12T06:13:37.985Z,17.23
2023-02-12T06:16:47.931Z,12.07
2023-02-12T06:19:54.063Z,20.80
2023-02-12T06:23:00.317Z,15.10
2023-02-12T06:26:06.397Z,15.23
2023-02-12T06:29:14.577Z,20.70
2023-02-12T06:32:21.103Z,20.63
2023-02-12T06:35:27.480Z,19.27
2023-02-12T06:38:36.544Z,19.43
2023-02-12T06:41:44.090Z,18.27
2023-02-12T06:44:53.047Z,18.70
2023-02-12T06:47:59.670Z,20.30
2023-02-12T06:51:08.129Z,18.30
2023-02-12T06:54:16.093Z,22.53
2023-02-12T06:57:23.022Z,18.87
2023-02-12T07:00:30.625Z,24.97
2023-02-12T07:03:37.096Z,21.33
2023-02-12T07:06:42.970Z,18.77
2023-02-12T07:09:49.273Z,17.70
2023-02-12T07:12:55.868Z,17.10
2023-02-12T07:16:07.105Z,20.63
2023-02-12T07:19:16.810Z,17.83
2023-02-12T07:22:23.178Z,16.87
2023-02-12T07:25:29.486Z,19.07
2023-02-12T07:28:36.248Z,20.40
2023-02-12T07:31:45.046Z,19.03
2023-02-12T07:34:51.284Z,15.13
2023-02-12T07:37:57.378Z,11.17
2023-02-12T07:41:12.310Z,13.23
2023-02-12T07:44:19.036Z,15.53
2023-02-12T07:47:26.778Z,14.73
2023-02-12T07:50:33.245Z,21.33
2023-02-12T07:53:39.716Z,19.57
2023-02-12T07:56:47.721Z,16.20
2023-02-12T07:59:54.367Z,19.93
2023-02-12T08:03:01.832Z,19.70
2023-02-12T08:06:12.575Z,13.80
2023-02-12T08:09:20.845Z,7.90
2023-02-12T08:12:27.382Z,14.70
2023-02-12T08:15:33.577Z,10.70
2023-02-12T08:18:41.560Z,10.80
2023-02-12T08:21:51.523Z,12.50
2023-02-12T08:24:58.130Z,9.00
2023-02-12T08:28:04.756Z,9.00
2023-02-12T08:31:12.717Z,10.07
2023-02-12T08:34:22.142Z,8.20
2023-02-12T08:37:28.209Z,7.47
2023-02-12T08:40:34.918Z,6.43
2023-02-12T08:43:42.456Z,5.80
2023-02-12T08:46:50.399Z,6.43
2023-02-12T08:49:57.980Z,8.30
2023-02-12T08:53:04.520Z,8.13
2023-02-12T08:56:11.820Z,10.83
2023-02-12T08:59:18.700Z,9.57
2023-02-12T09:02:25.030Z,10.63
2023-02-12T09:05:32.511Z,10.17
2023-02-12T09:08:39.823Z,11.23
2023-02-12T09:11:45.966Z,11.03
2023-02-12T09:14:52.240Z,9.30
2023-02-12T09:17:58.301Z,9.27
2023-02-12T09:21:08.136Z,8.73
2023-02-12T09:24:14.290Z,9.80
2023-02-12T09:27:20.785Z,9.70
2023-02-12T09:30:27.100Z,9.63
2023-02-12T09:33:33.779Z,7.10
2023-02-12T09:36:41.322Z,6.03
2023-02-12T09:39:50.167Z,4.60
2023-02-12T09:43:08.050Z,6.20
2023-02-12T09:46:21.933Z,5.47
2023-02-12T09:49:49.788Z,9.67
2023-02-12T09:52:59.270Z,9.40
2023-02-12T09:56:12.965Z,8.20
2023-02-12T09:59:30.087Z,5.97
2023-02-12T10:02:37.412Z,5.23
2023-02-12T10:05:49.389Z,7.67
2023-02-12T10:09:04.119Z,5.00
2023-02-12T10:12:17.718Z,3.93
2023-02-12T10:15:38.781Z,3.53
2023-02-12T10:19:00.904Z,7.10
2023-02-12T10:22:21.553Z,4.13
2023-02-12T10:25:37.924Z,6.10
2023-02-12T10:28:44.979Z,9.07
2023-02-12T10:35:13.644Z,10.43
2023-02-12T10:38:23.691Z,12.20
2023-02-12T10:41:33.372Z,4.93
2023-02-12T10:44:39.661Z,5.30
2023-02-12T10:47:47.357Z,4.93
2023-02-12T10:51:07.529Z,5.20
2023-02-12T10:54:45.032Z,3.70
2023-02-12T10:57:52.910Z,8.77
2023-02-12T11:01:00.899Z,6.87
2023-02-12T11:04:22.736Z,8.27
2023-02-12T11:07:30.154Z,6.43
2023-02-12T11:10:39.948Z,6.23
2023-02-12T11:13:54.993Z,5.57
2023-02-12T11:17:02.830Z,6.60
2023-02-12T11:20:23.599Z,4.27
2023-02-12T11:23:31.796Z,4.40
2023-02-12T11:26:37.729Z,3.83
2023-02-12T11:29:48.881Z,3.93
2023-02-12T11:32:55.211Z,4.17
2023-02-12T11:36:07.057Z,4.33
2023-02-12T11:39:23.055Z,6.10
2023-02-12T11:42:34.738Z,6.17
2023-02-12T11:45:47.970Z,4.27
2023-02-12T11:48:56.803Z,5.40
2023-02-12T11:52:04.949Z,4.93
2023-02-12T11:55:23.411Z,8.40
2023-02-12T11:58:30.724Z,7.97
2023-02-12T12:01:41.922Z,6.30
2023-02-12T12:04:53.141Z,6.97
2023-02-12T12:08:03.708Z,6.17
2023-02-12T12:11:17.935Z,7.80
2023-02-12T12:14:30.396Z,14.53
2023-02-12T12:18:02.992Z,23.80
2023-02-12T12:21:14.858Z,13.00
2023-02-12T12:24:25.936Z,9.70
2023-02-12T12:27:55.010Z,11.03
2023-02-12T12:31:08.123Z,6.43
2023-02-12T12:34:18.224Z,10.43
2023-02-12T12:37:34.485Z,10.13
2023-02-12T12:40:51.379Z,5.53
2023-02-12T12:44:08.495Z,10.40
2023-02-12T12:47:25.684Z,9.60
2023-02-12T12:50:53.226Z,4.90
2023-02-12T12:54:13.840Z,7.23
2023-02-12T12:57:33.681Z,6.47
2023-02-12T13:00:58.088Z,3.90
2023-02-12T13:04:33.882Z,7.83
2023-02-12T13:07:52.060Z,5.03
2023-02-12T13:11:04.709Z,19.33
2023-02-12T13:14:28.885Z,9.70
2023-02-12T13:17:46.068Z,8.33
2023-02-12T13:21:01.272Z,7.90
2023-02-12T13:24:22.424Z,7.07
2023-02-12T13:27:34.251Z,7.17
2023-02-12T13:30:46.485Z,5.90
2023-02-12T13:33:56.172Z,6.83
2023-02-12T13:37:04.020Z,7.43
2023-02-12T13:40:18.703Z,9.00
2023-02-12T13:43:37.830Z,7.73
2023-02-12T13:46:54.716Z,9.97
2023-02-12T13:50:08.444Z,9.40
2023-02-12T13:53:24.092Z,9.40
2023-02-12T13:56:41.729Z,7.80
2023-02-12T13:59:50.161Z,7.10
2023-02-12T14:02:57.046Z,7.53
2023-02-12T14:06:16.724Z,19.70
2023-02-12T14:09:34.174Z,12.83
2023-02-12T14:12:43.086Z,38.67
2023-02-12T14:15:52.768Z,15.30
2023-02-12T14:19:32.419Z,13.73
2023-02-12T14:23:02.826Z,8.80
2023-02-12T14:26:13.079Z,9.93
2023-02-12T14:29:22.080Z,11.07
2023-02-12T14:32:58.358Z,10.97
2023-02-12T14:36:17.613Z,12.33
2023-02-12T14:39:31.169Z,7.70
2023-02-12T14:42:45.218Z,6.23
2023-02-12T14:45:52.863Z,13.40
2023-02-12T14:49:05.017Z,9.63
2023-02-12T14:52:17.938Z,11.03
2023-02-12T14:55:28.731Z,10.33
2023-02-12T14:58:35.068Z,9.53
2023-02-12T15:01:44.129Z,9.83
2023-02-12T15:04:52.992Z,13.07
2023-02-12T15:08:01.987Z,26.87
2023-02-12T15:11:21.421Z,18.37
2023-02-12T15:14:32.246Z,13.13
2023-02-12T15:17:43.671Z,14.13
2023-02-12T15:20:56.123Z,17.00
2023-02-12T15:24:11.194Z,16.00
2023-02-12T15:27:18.475Z,26.13
2023-02-12T15:30:27.886Z,23.00
2023-02-12T15:33:37.157Z,24.60
2023-02-12T15:36:47.450Z,25.97
2023-02-12T15:39:57.270Z,21.87
2023-02-12T15:43:05.578Z,19.87
2023-02-12T15:46:19.090Z,25.77
2023-02-12T15:49:32.379Z,21.20
2023-02-12T15:52:41.370Z,23.03
2023-02-12T15:55:50.420Z,28.17
2023-02-12T15:58:59.108Z,19.60
2023-02-12T16:02:05.846Z,22.13
2023-02-12T16:05:17.963Z,19.53
2023-02-12T16:08:25.569Z,20.20
2023-02-12T16:11:33.454Z,19.03
2023-02-12T16:14:44.819Z,22.20
2023-02-12T16:17:51.089Z,22.10
2023-02-12T16:21:07.795Z,23.43
2023-02-12T16:24:26.737Z,23.27
2023-02-12T16:27:35.275Z,27.10
2023-02-12T16:30:44.307Z,25.70
2023-02-12T16:33:53.396Z,30.33
2023-02-12T16:37:01.219Z,26.70
2023-02-12T16:40:31.011Z,28.87
2023-02-12T16:43:36.998Z,45.27
2023-02-12T16:46:48.103Z,49.00
2023-02-12T16:49:57.940Z,48.17
2023-02-12T16:53:06.933Z,37.77
2023-02-12T16:56:18.355Z,36.70
2023-02-12T16:59:24.969Z,32.33
2023-02-12T17:02:31.241Z,35.10
2023-02-12T17:05:37.768Z,30.47
2023-02-12T17:08:45.662Z,29.90
2023-02-12T17:11:51.878Z,27.03
2023-02-12T17:14:57.890Z,36.17
2023-02-12T17:18:04.142Z,32.63
2023-02-12T17:21:19.732Z,29.27
2023-02-12T17:24:29.521Z,15.13
2023-02-12T17:27:38.077Z,22.73
2023-02-12T17:30:45.013Z,17.97
2023-02-12T17:33:51.195Z,17.93
2023-02-12T17:36:57.497Z,16.00
2023-02-12T17:40:05.228Z,21.73
2023-02-12T17:43:11.741Z,21.03
2023-02-12T17:46:22.001Z,29.87
2023-02-12T17:49:28.437Z,33.07
2023-02-12T17:52:34.739Z,23.27
2023-02-12T17:55:42.729Z,28.93
2023-02-12T17:58:50.582Z,31.03
2023-02-12T18:01:57.213Z,37.37
2023-02-12T18:05:03.364Z,47.00
2023-02-12T18:08:10.305Z,39.93
2023-02-12T18:11:19.145Z,29.00
2023-02-12T18:14:25.612Z,29.23
2023-02-12T18:17:31.974Z,32.13
2023-02-12T18:20:40.615Z,28.23
2023-02-12T18:23:46.739Z,24.67
2023-02-12T18:26:54.427Z,29.80
2023-02-12T18:30:00.708Z,26.90
2023-02-12T18:33:07.445Z,23.20
2023-02-12T18:36:15.853Z,30.43
2023-02-12T18:39:22.300Z,26.47
2023-02-12T18:42:30.307Z,24.33
2023-02-12T18:45:36.810Z,24.80
2023-02-12T18:48:43.619Z,27.70
2023-02-12T18:51:49.944Z,23.70
2023-02-12T18:54:56.362Z,17.73
2023-02-12T18:58:03.937Z,15.30
2023-02-12T19:01:14.898Z,14.73
2023-02-12T19:04:24.399Z,15.93
2023-02-12T19:07:30.573Z,21.53
2023-02-12T19:10:40.063Z,33.67
2023-02-12T19:13:47.626Z,33.90
2023-02-12T19:16:54.617Z,40.43
2023-02-12T19:20:00.969Z,39.57
2023-02-12T19:23:07.358Z,33.23
2023-02-12T19:26:15.678Z,25.80
2023-02-12T19:29:23.256Z,25.30
2023-02-12T19:32:29.888Z,26.83
2023-02-12T19:35:36.343Z,22.90
2023-02-12T19:38:43.316Z,21.10
2023-02-12T19:41:50.561Z,24.33
2023-02-12T19:44:58.621Z,26.90
2023-02-12T19:48:05.199Z,26.90
2023-02-12T19:51:15.151Z,24.03
2023-02-12T19:54:22.919Z,24.30
2023-02-12T19:57:29.259Z,22.77
2023-02-12T20:00:37.062Z,30.50
2023-02-12T20:03:43.592Z,32.13
2023-02-12T20:06:51.103Z,27.97
2023-02-12T20:09:57.328Z,27.67
2023-02-12T20:13:03.656Z,26.60
2023-02-12T20:16:13.645Z,25.17
2023-02-12T20:19:23.009Z,17.30
2023-02-12T20:22:29.419Z,19.87
2023-02-12T20:25:35.743Z,20.53
2023-02-12T20:28:43.023Z,19.23
2023-02-12T20:31:51.003Z,22.83
2023-02-12T20:34:57.610Z,24.07
2023-02-12T20:38:04.321Z,52.43
2023-02-12T20:41:11.924Z,38.40
2023-02-12T20:44:20.296Z,33.80
2023-02-12T20:47:29.615Z,26.37
2023-02-12T20:50:36.074Z,21.23
2023-02-12T20:53:43.689Z,28.70
2023-02-12T20:56:51.759Z,28.37
2023-02-12T20:59:58.199Z,25.83
2023-02-12T21:03:06.185Z,26.40
2023-02-12T21:06:13.280Z,21.97
2023-02-12T21:09:20.049Z,24.20
2023-02-12T21:12:26.566Z,20.40
2023-02-12T21:15:33.244Z,20.47
2023-02-12T21:18:41.181Z,14.60
2023-02-12T21:21:48.118Z,16.63
2023-02-12T21:24:54.583Z,16.13
2023-02-12T21:28:00.871Z,15.20
2023-02-12T21:31:08.701Z,15.03
2023-02-12T21:34:18.043Z,17.17
2023-02-12T21:37:24.334Z,21.37
2023-02-12T21:40:30.562Z,20.83
2023-02-12T21:43:37.288Z,21.93
2023-02-12T21:46:44.350Z,19.37
2023-02-12T21:49:52.184Z,30.73
2023-02-12T21:52:59.114Z,36.97
2023-02-12T21:56:06.225Z,33.23
2023-02-12T21:59:12.940Z,37.83
2023-02-12T22:02:19.317Z,39.43
2023-02-12T22:05:26.727Z,28.47
2023-02-12T22:08:33.032Z,18.77
2023-02-12T22:11:40.810Z,26.93
2023-02-12T22:14:47.173Z,21.37
2023-02-12T22:17:53.580Z,18.23
2023-02-12T22:21:03.047Z,15.17
2023-02-12T22:24:12.543Z,21.50
2023-02-12T22:27:18.534Z,17.20
2023-02-12T22:30:24.665Z,15.00
2023-02-12T22:33:30.728Z,15.53
2023-02-12T22:36:39.588Z,13.90
2023-02-12T22:39:45.627Z,13.77
2023-02-12T22:42:51.527Z,15.33
2023-02-12T22:45:58.000Z,14.17
2023-02-12T22:49:04.559Z,13.33
2023-02-12T22:52:12.517Z,15.53
2023-02-12T22:55:19.042Z,15.53
2023-02-12T22:58:25.532Z,17.13
2023-02-12T23:01:32.356Z,22.17
2023-02-12T23:04:38.763Z,19.63
2023-02-12T23:07:46.697Z,24.83
2023-02-12T23:10:52.939Z,23.77
2023-02-12T23:13:59.740Z,22.10
2023-02-12T23:17:05.863Z,23.33
2023-02-12T23:20:13.580Z,25.03
2023-02-12T23:23:21.844Z,23.97
2023-02-12T23:26:28.787Z,27.07
2023-02-12T23:29:35.994Z,22.50
2023-02-12T23:32:42.423Z,24.83
2023-02-12T23:35:49.632Z,23.00
2023-02-12T23:38:57.458Z,21.20
2023-02-12T23:42:03.967Z,21.50
2023-02-12T23:45:11.252Z,22.80
2023-02-12T23:48:17.702Z,23.10
2023-02-12T23:51:23.722Z,20.67
2023-02-12T23:54:31.819Z,23.07
2023-02-12T23:57:37.901Z,21.97
